Home > Products > Valid Products > MTR

000
SAUS43 KAPX 250855
MTRAPN
METAR KAPN 250854Z AUTO 21008KT 10SM BKN035 OVC075 08/07 A2973 RMK
AO2 SLP069 T00830067 58028





000
SAUS43 KAPX 250755
MTRAPN
METAR KAPN 250754Z AUTO 21003KT 10SM CLR 08/07 A2976 RMK AO2 SLP080
T00780067





000
SAUS43 KAPX 250655
MTRAPN
METAR KAPN 250654Z AUTO 20005KT 7SM BKN060 08/07 A2979 RMK AO2
SLP090 T00780067





000
SAUS43 KAPX 250555
MTRAPN
METAR KAPN 250554Z AUTO 22004KT 7SM CLR 08/07 A2981 RMK AO2 SLP097
T00780072 10117 20028 58023





000
SAUS43 KAPX 250455
MTRAPN
METAR KAPN 250454Z AUTO 20003KT 9SM CLR 03/02 A2984 RMK AO2 VIS 1/4
RY 19 SLP110 T00280022 401391028





000
SAUS43 KAPX 250406
MTRAPN
SPECI KAPN 250405Z AUTO 20004KT 10SM CLR 04/04 A2986 RMK AO2 VIS 1/4
RY 19 T00440039 TSNO





000
SAUS43 KAPX 250406
MTRAPN
SPECI KAPN 250405Z AUTO 20004KT 10SM CLR 04/04 A2986 RMK AO2 VIS 1/4
RY 19 T00440039 TSNO





000
SAUS43 KAPX 250400
MTRAPN
SPECI KAPN 250358Z AUTO 19004KT 2 1/2SM BR CLR 04/04 A2986 RMK AO2
VIS 1/4 RY 19 T00390039 TSNO





000
SAUS43 KAPX 250400
MTRAPN
SPECI KAPN 250358Z AUTO 19004KT 2 1/2SM BR CLR 04/04 A2986 RMK AO2
VIS 1/4 RY 19 T00390039 TSNO





000
SAUS43 KAPX 250355
MTRAPN
METAR KAPN 250354Z AUTO 17004KT 3/4SM BR CLR 04/04 A2986 RMK AO2
SLP116 T00440039





000
SAUS43 KAPX 250355
MTRAPN
METAR KAPN 250354Z AUTO 17004KT 3/4SM BR CLR 04/04 A2986 RMK AO2
SLP116 T00440039





000
SAUS43 KAPX 250336
MTRAPN
SPECI KAPN 250335Z AUTO 00000KT 1/2SM FG CLR 05/04 A2987 RMK AO2
T00500044





000
SAUS43 KAPX 250336
MTRAPN
SPECI KAPN 250335Z AUTO 00000KT 1/2SM FG CLR 05/04 A2987 RMK AO2
T00500044





000
SAUS43 KAPX 250327
MTRAPN
SPECI KAPN 250326Z AUTO 00000KT 1 1/2SM BR CLR 05/04 A2987 RMK AO2
VIS 1/2 RY 19 T00500044





000
SAUS43 KAPX 250255
MTRAPN
METAR KAPN 250254Z AUTO 00000KT 7SM CLR 05/04 A2988 RMK AO2 SLP123
T00500044 58012





000
SAUS43 KAPX 250155
MTRAPN
METAR KAPN 250154Z AUTO 00000KT 10SM FEW019 09/08 A2990 RMK AO2
SLP129 T00940078





000
SAUS43 KAPX 250151
MTRAPN
SPECI KAPN 250149Z AUTO 23003KT 10SM SCT019 10/08 A2990 RMK AO2





000
SAUS43 KAPX 250055
MTRAPN
METAR KAPN 250054Z AUTO 20004KT 10SM OVC022 11/08 A2992 RMK AO2
SLP134 T01110083





000
SAUS43 KAPX 242355
MTRAPN
METAR KAPN 242354Z AUTO 21003KT 10SM OVC022 12/08 A2993 RMK AO2
SLP138 T01170083 10139 20117 55000





000
SAUS43 KAPX 242255
MTRAPN
METAR KAPN 242254Z AUTO 22003KT 10SM OVC020 12/08 A2993 RMK AO2
SLP138 T01220083





000
SAUS43 KAPX 242155
MTRAPN
METAR KAPN 242154Z AUTO 23004KT 10SM OVC021 13/08 A2993 RMK AO2
SLP138 T01280083





000
SAUS43 KAPX 242055
MTRAPN
METAR KAPN 242054Z AUTO 25005KT 10SM OVC023 13/08 A2993 RMK AO2
SLP138 T01330083 56010





000
SAUS43 KAPX 241955
MTRAPN
METAR KAPN 241954Z AUTO 25006KT 10SM OVC027 13/08 A2993 RMK AO2
SLP141 T01330083





000
SAUS43 KAPX 241955
MTRAPN
METAR KAPN 241954Z AUTO 25006KT 10SM OVC027 13/08 A2993 RMK AO2
SLP141 T01330083





000
SAUS43 KAPX 241928 COR
MTRAPN
SPECI KAPN 241919Z AUTO 00000KT 10SM OVC028 13/08 A2994 RMK AO2
T01330078





000
SAUS43 KAPX 241921 COR
MTRAPN
SPECI KAPN 241919Z AUTO 00000KT 10SM OVC028 13/08 A2994 RMK AO2
T01330078





000
SAUS43 KAPX 241855
MTRAPN
METAR KAPN 241854Z AUTO 22003KT 10SM OVC030 13/08 A2994 RMK AO2
SLP143 T01330078





000
SAUS43 KAPX 241844 COR
MTRAPN
SPECI KAPN 241835Z AUTO 21006KT 10SM FEW024 OVC030 13/08 A2994 RMK
AO2 T01330078





000
SAUS43 KAPX 241837 COR
MTRAPN
SPECI KAPN 241835Z AUTO 21006KT 10SM FEW024 OVC030 13/08 A2994 RMK
AO2 T01330078





000
SAUS43 KAPX 241824
MTRAPN
SPECI KAPN 241823Z AUTO VRB04KT 10SM BKN025 OVC031 13/08 A2994 RMK
AO2 T01330078





000
SAUS43 KAPX 241756
MTRAPN
METAR KAPN 241754Z AUTO VRB04KT 10SM FEW026 OVC031 13/08 A2996 RMK
AO2 SLP150 T01330078 10133 20056 55015 TSNO





000
SAUS43 KAPX 241751
MTRAPN
SPECI KAPN 241750Z AUTO VRB04KT 10SM OVC031 13/08 A2996 RMK AO2





000
SAUS43 KAPX 241732 COR
MTRAPN
SPECI KAPN 241723Z AUTO 22004KT 10SM OVC028 13/08 A2997 RMK AO2
T01280078





000
SAUS43 KAPX 241725 COR
MTRAPN
SPECI KAPN 241723Z AUTO 22004KT 10SM OVC028 13/08 A2997 RMK AO2
T01280078





000
SAUS43 KAPX 241724
MTRAPN
SPECI KAPN 241723Z AUTO 22004KT 10SM OVC028 13/08 A2997 RMK AO2
T01280078





000
SAUS43 KAPX 241656
MTRAPN
METAR KAPN 241654Z AUTO 21004KT 10SM OVC035 12/07 A2998 RMK AO2
SLP159 T01220072





000
SAUS43 KAPX 241555
MTRAPN
METAR KAPN 241554Z AUTO 00000KT 10SM OVC038 11/06 A3000 RMK AO2
SLP166 T01060061





000
SAUS43 KAPX 241455
MTRAPN
METAR KAPN 241454Z AUTO 00000KT 10SM OVC040 09/06 A3002 RMK AO2
SLP173 T00890056 50002





000
SAUS43 KAPX 241356
MTRAPN
METAR KAPN 241354Z AUTO 00000KT 10SM OVC045 08/06 A3003 RMK AO2
SLP174 T00780056





000
SAUS43 KAPX 241255
MTRAPN
METAR KAPN 241254Z AUTO 22003KT 9SM SCT037 OVC050 06/04 A3003 RMK
AO2 SLP176 T00610044





000
SAUS43 KAPX 241241
MTRAPN
SPECI KAPN 241240Z AUTO 00000KT 9SM SCT026 SCT037 OVC050 06/04 A3003
RMK AO2 T00610044





000
SAUS43 KAPX 241155
MTRAPN
METAR KAPN 241154Z AUTO 00000KT 10SM BKN026 OVC060 06/04 A3002 RMK
AO2 SLP170 T00610044 10061 21022 58004





000
SAUS43 KAPX 241148
MTRAPN
SPECI KAPN 241147Z AUTO 00000KT 10SM BKN026 OVC032 06/04 A3002 RMK
AO2 T00560044





000
SAUS43 KAPX 241121
MTRAPN
SPECI KAPN 241120Z AUTO 21004KT 10SM BKN030 OVC060 05/04 A3003 RMK
AO2 T00500039





000
SAUS43 KAPX 241055
MTRAPN
METAR KAPN 241054Z AUTO 17003KT 9SM OVC026 04/03 A3003 RMK AO2
SLP176 T00390033





000
SAUS43 KAPX 241055
MTRAPN
METAR KAPN 241054Z AUTO 17003KT 9SM OVC026 04/03 A3003 RMK AO2
SLP176 T00390033





000
SAUS43 KAPX 241027
MTRAPN
SPECI KAPN 241026Z AUTO 00000KT 10SM BKN027 OVC045 04/03 A3005 RMK
AO2 T00390028





000
SAUS43 KAPX 240955
MTRAPN
METAR KAPN 240954Z AUTO 00000KT 9SM BKN075 OVC085 03/02 A3004 RMK
AO2 SLP177 T00280022





000
SAUS43 KAPX 240855
MTRAPN
METAR KAPN 240854Z AUTO 00000KT 10SM OVC100 02/02 A3003 RMK AO2
SLP174 T00220017 55008





000
SAUS43 KAPX 240755
MTRAPN
METAR KAPN 240754Z AUTO 00000KT 10SM OVC110 01/M01 A3003 RMK AO2
SLP174 T00061006





000
SAUS43 KAPX 240655
MTRAPN
METAR KAPN 240654Z AUTO 00000KT 10SM CLR M01/M02 A3005 RMK AO2
SLP182 T10111022





000
SAUS43 KAPX 240555
MTRAPN
METAR KAPN 240554Z AUTO 00000KT 10SM CLR M02/M03 A3005 RMK AO2
SLP183 T10171028 10044 21028 56010





000
SAUS43 KAPX 240455
MTRAPN
METAR KAPN 240454Z AUTO 00000KT 8SM CLR M01/M02 A3006 RMK AO2 SLP185
T10111022 401221056





000
SAUS43 KAPX 240455
MTRAPN
METAR KAPN 240454Z AUTO 00000KT 8SM CLR M01/M02 A3006 RMK AO2 SLP185
T10111022 401221056





000
SAUS43 KAPX 240355
MTRAPN
METAR KAPN 240354Z AUTO 00000KT 10SM CLR M02/M03 A3007 RMK AO2
SLP189 T10221028





000
SAUS43 KAPX 240355
MTRAPN
METAR KAPN 240354Z AUTO 00000KT 10SM CLR M02/M03 A3007 RMK AO2
SLP189 T10221028





000
SAUS43 KAPX 240255
MTRAPN
METAR KAPN 240254Z AUTO 00000KT 9SM CLR M01/M02 A3008 RMK AO2 SLP194
T10111017 50001





000
SAUS43 KAPX 240255
MTRAPN
METAR KAPN 240254Z AUTO 00000KT 9SM CLR M01/M02 A3008 RMK AO2 SLP194
T10111017 50001





000
SAUS43 KAPX 240211
MTRAPN
SPECI KAPN 240210Z AUTO 00000KT 3SM BR SCT002 00/M01 A3009 RMK AO2
VIS 3/4 RY 19 T00001006





000
SAUS43 KAPX 240211
MTRAPN
SPECI KAPN 240210Z AUTO 00000KT 3SM BR SCT002 00/M01 A3009 RMK AO2
VIS 3/4 RY 19 T00001006





000
SAUS43 KAPX 240209
MTRAPN
SPECI KAPN 240208Z AUTO 00000KT 1 1/4SM BR SCT002 00/00 A3009 RMK
AO2 VIS 1/2 RY 19 T00000000





000
SAUS43 KAPX 240209
MTRAPN
SPECI KAPN 240208Z AUTO 00000KT 1 1/4SM BR SCT002 00/00 A3009 RMK
AO2 VIS 1/2 RY 19 T00000000





000
SAUS43 KAPX 240159
MTRAPN
SPECI KAPN 240157Z AUTO 00000KT 1/2SM FG VV002 00/M01 A3009 RMK AO2
T00001006 TSNO





000
SAUS43 KAPX 240159
MTRAPN
SPECI KAPN 240157Z AUTO 00000KT 1/2SM FG VV002 00/M01 A3009 RMK AO2
T00001006 TSNO





000
SAUS43 KAPX 240155
MTRAPN
METAR KAPN 240154Z AUTO 00000KT 1/4SM FZFG VV001 M01/M01 A3009 RMK
AO2 SLP197 T10061006





000
SAUS43 KAPX 240155
MTRAPN
METAR KAPN 240154Z AUTO 00000KT 1/4SM FZFG VV001 M01/M01 A3009 RMK
AO2 SLP197 T10061006





000
SAUS43 KAPX 240145
MTRAPN
SPECI KAPN 240144Z AUTO 00000KT 1/2SM FG VV001 00/00 A3009 RMK AO2
T00000000 TSNO





000
SAUS43 KAPX 240142
MTRAPN
SPECI KAPN 240141Z AUTO 00000KT 1SM BR VV002 01/01 A3009 RMK AO2
T00060006





000
SAUS43 KAPX 240132
MTRAPN
SPECI KAPN 240131Z AUTO 00000KT 2 1/2SM BR SCT002 01/01 A3009 RMK
AO2 VIS 1V5 T00110006





000
SAUS43 KAPX 240117
MTRAPN
SPECI KAPN 240116Z AUTO 00000KT 3SM BR OVC002 01/00 A3008 RMK AO2
T00110000





000
SAUS43 KAPX 240112
MTRAPN
SPECI KAPN 240111Z AUTO 00000KT 1/2SM FG VV002 01/01 A3008 RMK AO2
T00110006





000
SAUS43 KAPX 240101
MTRAPN
METAR KAPN 240054Z AUTO 00000KT 1/4SM FG VV002 01/01 A3008 RMK AO2
VIS M1/4V2 SLP196 T00110006 TSNO





000
SAUS43 KAPX 240054 COR
MTRAPN
SPECI KAPN 240052Z AUTO 00000KT 3/4SM BR VV002 01/01 A3008 RMK AO2
VIS 1/4V5 TSNO





000
SAUS43 KAPX 240053
MTRAPN
SPECI KAPN 240052Z AUTO 00000KT 3/4SM BR VV002 01/01 A3008 RMK AO2
VIS 1/4V5 TSNO





000
SAUS43 KAPX 240050
MTRAPN
SPECI KAPN 240049Z AUTO 00000KT 1 3/4SM BR SCT002 02/02 A3008 RMK
AO2 VIS 1/2V5





000
SAUS43 KAPX 240045
MTRAPN
SPECI KAPN 240044Z AUTO 00000KT 4SM BR FEW002 02/02 A3009 RMK AO2
T00220017





000
SAUS43 KAPX 240044
MTRAPN
SPECI KAPN 240042Z AUTO 00000KT 1 1/2SM BR FEW002 03/02 A3009 RMK
AO2 VIS 1/2V5 T00280017





000
SAUS43 KAPX 240030
MTRAPN
SPECI KAPN 240028Z AUTO 00000KT 3/4SM BR VV002 02/01 A3009 RMK AO2
T00170011 TSNO





000
SAUS43 KAPX 240027
MTRAPN
SPECI KAPN 240025Z AUTO 00000KT 1 1/2SM BR FEW002 02/01 A3009 RMK
AO2 T00170011





000
SAUS43 KAPX 232355
MTRAPN
METAR KAPN 232354Z AUTO 00000KT 10SM CLR 04/04 A3009 RMK AO2 SLP199
T00440039 10122 20044 56008





000
SAUS43 KAPX 232255
MTRAPN
METAR KAPN 232254Z AUTO 13004KT 10SM CLR 06/04 A3010 RMK AO2 SLP200
T00560044





000
SAUS43 KAPX 232155
MTRAPN
METAR KAPN 232154Z AUTO 12007KT 10SM CLR 09/05 A3010 RMK AO2 SLP201
T00890050





000
SAUS43 KAPX 232055
MTRAPN
METAR KAPN 232054Z AUTO 13007KT 10SM CLR 09/04 A3011 RMK AO2 SLP205
T00940044 56017





000
SAUS43 KAPX 231956
MTRAPN
METAR KAPN 231954Z AUTO 13011KT 10SM CLR 11/04 A3013 RMK AO2 SLP211
T01060039





000
SAUS43 KAPX 231956
MTRAPN
METAR KAPN 231954Z AUTO 13011KT 10SM CLR 11/04 A3013 RMK AO2 SLP211
T01060039





000
SAUS43 KAPX 231903 COR
MTRAPN
METAR KAPN 231854Z AUTO 16006KT 10SM CLR 12/02 A3014 RMK AO2 SLP212
T01170022





000
SAUS43 KAPX 231903 COR
MTRAPN
METAR KAPN 231854Z AUTO 16006KT 10SM CLR 12/02 A3014 RMK AO2 SLP212
T01170022





000
SAUS43 KAPX 231856 COR
MTRAPN
METAR KAPN 231854Z AUTO 16006KT 10SM CLR 12/02 A3014 RMK AO2 SLP212
T01170022





000
SAUS43 KAPX 231856 COR
MTRAPN
METAR KAPN 231854Z AUTO 16006KT 10SM CLR 12/02 A3014 RMK AO2 SLP212
T01170022





000
SAUS43 KAPX 231755
MTRAPN
METAR KAPN 231754Z AUTO 00000KT 10SM CLR 11/03 A3017 RMK AO2 SLP221
T01060028 10106 21056 58022





000
SAUS43 KAPX 231755
MTRAPN
METAR KAPN 231754Z AUTO 00000KT 10SM CLR 11/03 A3017 RMK AO2 SLP221
T01060028 10106 21056 58022





000
SAUS43 KAPX 231655
MTRAPN
METAR KAPN 231654Z AUTO 00000KT 10SM CLR 09/03 A3020 RMK AO2 SLP232
T00940028





000
SAUS43 KAPX 231655
MTRAPN
METAR KAPN 231654Z AUTO 00000KT 10SM CLR 09/03 A3020 RMK AO2 SLP232
T00940028





000
SAUS43 KAPX 231555
MTRAPN
METAR KAPN 231554Z AUTO 19009KT 10SM CLR 09/02 A3021 RMK AO2 SLP238
T00890022





000
SAUS43 KAPX 231455
MTRAPN
METAR KAPN 231454Z AUTO VRB03KT 10SM CLR 06/03 A3023 RMK AO2 SLP245
T00610033 55005





000
SAUS43 KAPX 231355
MTRAPN
METAR KAPN 231354Z AUTO 26003KT 10SM CLR 01/01 A3023 RMK AO2 SLP245
T00110006





000
SAUS43 KAPX 231255
MTRAPN
METAR KAPN 231254Z AUTO 00000KT 10SM CLR M03/M03 A3024 RMK AO2
SLP250 T10281033





000
SAUS43 KAPX 231245
MTRAPN
SPECI KAPN 231244Z AUTO 00000KT 10SM CLR M03/M04 A3024 RMK AO2
T10281039





000
SAUS43 KAPX 231239
MTRAPN
SPECI KAPN 231237Z AUTO 00000KT 2SM BR FEW002 M04/M04 A3024 RMK AO2
T10391044 TSNO





000
SAUS43 KAPX 231234
MTRAPN
SPECI KAPN 231233Z AUTO 00000KT 1SM BR VV002 M04/M05 A3024 RMK AO2
T10391050





000
SAUS43 KAPX 231224
MTRAPN
SPECI KAPN 231223Z AUTO 00000KT 1/4SM FZFG VV002 M05/M06 A3025 RMK
AO2 T10501056





000
SAUS43 KAPX 231219 COR
MTRAPN
SPECI KAPN 231217Z AUTO 00000KT 1 1/4SM BR SCT002 M06/M06 A3025 RMK
AO2 T10561061





000
SAUS43 KAPX 231218
MTRAPN
SPECI KAPN 231217Z AUTO 00000KT 1 1/4SM BR SCT002 M06/M06 A3025 RMK
AO2 T10561061





000
SAUS43 KAPX 231204
MTRAPN
SPECI KAPN 231203Z AUTO 00000KT 10SM SCT002 M04/M06 A3025 RMK AO2
T10441061





000
SAUS43 KAPX 231155
MTRAPN
METAR KAPN 231154Z AUTO 00000KT 10SM BKN002 M05/M06 A3025 RMK AO2
SLP252 I6001 T10501061 11022 21056 55003





000
SAUS43 KAPX 231115
MTRAPN
SPECI KAPN 231114Z AUTO 00000KT 10SM BKN002 M05/M07 A3024 RMK AO2
T10501067





000
SAUS43 KAPX 231107
MTRAPN
SPECI KAPN 231106Z AUTO 00000KT 10SM SCT001 M05/M06 A3024 RMK AO2
T10501061





000
SAUS43 KAPX 231055
MTRAPN
METAR KAPN 231054Z AUTO 00000KT 10SM CLR M04/M06 A3024 RMK AO2
SLP250 I1000 T10441056





000
SAUS43 KAPX 230955
MTRAPN
METAR KAPN 230954Z AUTO 00000KT 10SM CLR M04/M06 A3024 RMK AO2
SLP250 I1000 T10441061





000
SAUS43 KAPX 230955
MTRAPN
METAR KAPN 230954Z AUTO 00000KT 10SM CLR M04/M06 A3024 RMK AO2
SLP250 I1000 T10441061





000
SAUS43 KAPX 230920
MTRAPN
SPECI KAPN 230918Z AUTO 00000KT 10SM SCT002 M04/M06 A3025 RMK AO2
T10441061





000
SAUS43 KAPX 230905
MTRAPN
SPECI KAPN 230904Z AUTO 00000KT 10SM BKN002 M04/M05 A3026 RMK AO2
T10391050 TSNO





000
SAUS43 KAPX 230855
MTRAPN
METAR KAPN 230854Z AUTO 00000KT 8SM SCT001 M04/M04 A3026 RMK AO2
SLP253 I1000 I3001 T10391044 58013





000
SAUS43 KAPX 230845
MTRAPN
SPECI KAPN 230844Z AUTO 00000KT 10SM SCT001 M03/M05 A3026 RMK AO2
T10331050





000
SAUS43 KAPX 230804
MTRAPN
SPECI KAPN 230803Z AUTO 00000KT 4SM BR BKN001 M03/M04 A3027 RMK AO2
T10331044





000
SAUS43 KAPX 230804
MTRAPN
SPECI KAPN 230803Z AUTO 00000KT 4SM BR BKN001 M03/M04 A3027 RMK AO2
T10331044





000
SAUS43 KAPX 230755
MTRAPN
METAR KAPN 230754Z AUTO 00000KT 4SM BR SCT002 M03/M04 A3027 RMK AO2
SLP257 T10331044





000
SAUS43 KAPX 230732
MTRAPN
SPECI KAPN 230730Z AUTO 00000KT 4SM BR SCT001 M03/M04 A3028 RMK AO2
T10331044





000
SAUS43 KAPX 230720
MTRAPN
SPECI KAPN 230719Z AUTO 00000KT 3SM BR BKN001 M04/M04 A3028 RMK AO2
T10391044





000
SAUS43 KAPX 230714
MTRAPN
SPECI KAPN 230713Z AUTO 00000KT 1/2SM FZFG VV001 M03/M03 A3028 RMK
AO2 T10281033





000
SAUS43 KAPX 230655
MTRAPN
METAR KAPN 230654Z AUTO 00000KT 1/4SM FZFG VV001 M03/M03 A3028 RMK
AO2 SLP261 I1001 T10281033





000
SAUS43 KAPX 230643
MTRAPN
SPECI KAPN 230642Z AUTO 27003KT 1/4SM FZFG VV001 M03/M03 A3029 RMK
AO2 I1000 T10281033





000
SAUS43 KAPX 230637
MTRAPN
SPECI KAPN 230636Z AUTO 00000KT 1 1/2SM BR BKN001 M03/M04 A3029 RMK
AO2 VIS 1/2V5 I1000 T10281039





000
SAUS43 KAPX 230607
MTRAPN
SPECI KAPN 230606Z AUTO 00000KT 3SM BR OVC001 M02/M03 A3029 RMK AO2
T10221033 TSNO





000
SAUS43 KAPX 230600
MTRAPN
SPECI KAPN 230559Z AUTO 00000KT 1SM BR VV001 M02/M03 A3029 RMK AO2
VIS 1/4V5 T10221028





000
SAUS43 KAPX 230556
MTRAPN
METAR KAPN 230554Z AUTO 00000KT 1/4SM FZFG VV001 M02/M03 A3029 RMK
AO2 SLP265 I1000 I6000 T10221028 10039 21028 55006





000
SAUS43 KAPX 230544
MTRAPN
SPECI KAPN 230543Z AUTO 00000KT 1/4SM FZFG VV001 M02/M03 A3030 RMK
AO2 T10221028





000
SAUS43 KAPX 230534
MTRAPN
SPECI KAPN 230533Z AUTO 00000KT 3/4SM BR VV001 M02/M03 A3030 RMK AO2
T10221028





000
SAUS43 KAPX 230532
MTRAPN
SPECI KAPN 230531Z AUTO 00000KT 2SM BR SCT002 M02/M03 A3030 RMK AO2
T10221033





000
SAUS43 KAPX 230455
MTRAPN
METAR KAPN 230454Z AUTO 00000KT 10SM CLR M02/M03 A3029 RMK AO2
SLP266 T10221033 401171028





000
SAUS43 KAPX 230455
MTRAPN
METAR KAPN 230454Z AUTO 00000KT 10SM CLR M02/M03 A3029 RMK AO2
SLP266 T10221033 401171028





000
SAUS43 KAPX 230355
MTRAPN
METAR KAPN 230354Z AUTO 27003KT 10SM CLR M02/M03 A3030 RMK AO2
SLP269 T10171033





000
SAUS43 KAPX 230355
MTRAPN
METAR KAPN 230354Z AUTO 27003KT 10SM CLR M02/M03 A3030 RMK AO2
SLP269 T10171033





000
SAUS43 KAPX 230255
MTRAPN
METAR KAPN 230254Z AUTO 27003KT 10SM CLR M01/M01 A3031 RMK AO2
SLP273 T10061011 55000





000
SAUS43 KAPX 230155
MTRAPN
METAR KAPN 230154Z AUTO 00000KT 10SM CLR M01/M02 A3031 RMK AO2
SLP271 T10061017





000
SAUS43 KAPX 230155
MTRAPN
METAR KAPN 230154Z AUTO 00000KT 10SM CLR M01/M02 A3031 RMK AO2
SLP271 T10061017





000
SAUS43 KAPX 230055
MTRAPN
METAR KAPN 230054Z AUTO 00000KT 10SM CLR 01/M01 A3031 RMK AO2 SLP273
T00061011





000
SAUS43 KAPX 230055
MTRAPN
METAR KAPN 230054Z AUTO 00000KT 10SM CLR 01/M01 A3031 RMK AO2 SLP273
T00061011





000
SAUS43 KAPX 222355
MTRAPN
METAR KAPN 222354Z AUTO 00000KT 10SM CLR 03/00 A3031 RMK AO2 SLP272
T00330000 10117 20033 55006





000
SAUS43 KAPX 222355
MTRAPN
METAR KAPN 222354Z AUTO 00000KT 10SM CLR 03/00 A3031 RMK AO2 SLP272
T00330000 10117 20033 55006





000
SAUS43 KAPX 222255
MTRAPN
METAR KAPN 222254Z AUTO 08004KT 10SM CLR 05/01 A3031 RMK AO2 SLP271
T00500006





000
SAUS43 KAPX 222255
MTRAPN
METAR KAPN 222254Z AUTO 08004KT 10SM CLR 05/01 A3031 RMK AO2 SLP271
T00500006





000
SAUS43 KAPX 222155
MTRAPN
METAR KAPN 222154Z AUTO 07006KT 10SM CLR 08/01 A3032 RMK AO2 SLP273
T00780011





000
SAUS43 KAPX 222055
MTRAPN
METAR KAPN 222054Z AUTO 05005KT 10SM CLR 09/02 A3033 RMK AO2 SLP277
T00940017 56010





000
SAUS43 KAPX 221955
MTRAPN
METAR KAPN 221954Z AUTO 36005KT 10SM CLR 11/00 A3034 RMK AO2 SLP278
T01110000





000
SAUS43 KAPX 221855
MTRAPN
METAR KAPN 221854Z AUTO 30003KT 10SM CLR 11/M01 A3035 RMK AO2 SLP281
T01061006





000
SAUS43 KAPX 221755
MTRAPN
METAR KAPN 221754Z AUTO VRB03KT 10SM CLR 10/01 A3036 RMK AO2 SLP287
T01000011 10100 20044 58014





000
SAUS43 KAPX 221755
MTRAPN
METAR KAPN 221754Z AUTO VRB03KT 10SM CLR 10/01 A3036 RMK AO2 SLP287
T01000011 10100 20044 58014





000
SAUS43 KAPX 221655
MTRAPN
METAR KAPN 221654Z AUTO VRB04KT 10SM CLR 09/01 A3039 RMK AO2 SLP296
T00890011





000
SAUS43 KAPX 221655
MTRAPN
METAR KAPN 221654Z AUTO VRB04KT 10SM CLR 09/01 A3039 RMK AO2 SLP296
T00890011





000
SAUS43 KAPX 221555
MTRAPN
METAR KAPN 221554Z AUTO 00000KT 10SM FEW028 07/01 A3040 RMK AO2
SLP302 T00670006





000
SAUS43 KAPX 221555
MTRAPN
METAR KAPN 221554Z AUTO 00000KT 10SM FEW028 07/01 A3040 RMK AO2
SLP302 T00670006





000
SAUS43 KAPX 221539
MTRAPN
SPECI KAPN 221538Z AUTO 01006KT 10SM SCT027 08/01 A3040 RMK AO2
T00830011





000
SAUS43 KAPX 221539
MTRAPN
SPECI KAPN 221538Z AUTO 01006KT 10SM SCT027 08/01 A3040 RMK AO2
T00830011





000
SAUS43 KAPX 221455
MTRAPN
METAR KAPN 221454Z AUTO 34007KT 10SM OVC023 06/01 A3040 RMK AO2
SLP303 T00610011 51011





000
SAUS43 KAPX 221355
MTRAPN
METAR KAPN 221354Z AUTO 35006KT 10SM OVC022 06/01 A3040 RMK AO2
SLP301 T00560011





000
SAUS43 KAPX 221255
MTRAPN
METAR KAPN 221254Z AUTO 35006KT 10SM OVC021 05/01 A3039 RMK AO2
SLP300 T00500011





000
SAUS43 KAPX 221155
MTRAPN
METAR KAPN 221154Z AUTO 35004KT 10SM OVC020 04/01 A3037 RMK AO2
SLP292 T00440011 10050 20039 53012





000
SAUS43 KAPX 221055
MTRAPN
METAR KAPN 221054Z AUTO 02005KT 10SM OVC019 05/01 A3035 RMK AO2
SLP285 T00500011





000
SAUS43 KAPX 220955
MTRAPN
METAR KAPN 220954Z AUTO 03004KT 10SM OVC019 04/01 A3034 RMK AO2
SLP281 T00440011





000
SAUS43 KAPX 220955
MTRAPN
METAR KAPN 220954Z AUTO 03004KT 10SM OVC019 04/01 A3034 RMK AO2
SLP281 T00440011





    US Dept of Commerce
    National Oceanic and Atmospheric Administration
    National Weather Service
    1325 East West Highway
    Silver Spring, MD 20910
    Page Author: NWS Internet Services Team
Disclaimer
Information Quality
Credits
Glossary
Privacy Policy
Freedom of Information Act (FOIA)
About Us
Career Opportunities